createdAt,value
2023-01-03T00:01:20.385Z,52.32
2023-01-03T00:03:48.572Z,52.23
2023-01-03T00:06:23.390Z,52.19
2023-01-03T00:08:51.941Z,52.30
2023-01-03T00:11:44.082Z,52.23
2023-01-03T00:14:19.711Z,52.42
2023-01-03T00:16:51.575Z,52.18
2023-01-03T00:19:20.768Z,52.05
2023-01-03T00:21:48.731Z,52.25
2023-01-03T00:24:17.049Z,52.04
2023-01-03T00:26:45.113Z,52.46
2023-01-03T00:29:13.659Z,52.52
2023-01-03T00:31:42.195Z,52.30
2023-01-03T00:34:10.796Z,52.13
2023-01-03T00:36:39.204Z,52.27
2023-01-03T00:39:06.979Z,52.40
2023-01-03T00:41:35.233Z,52.53
2023-01-03T00:44:03.491Z,52.11
2023-01-03T00:46:31.594Z,52.16
2023-01-03T00:48:59.344Z,51.86
2023-01-03T00:51:29.673Z,51.71
2023-01-03T00:54:01.248Z,51.79
2023-01-03T00:56:35.023Z,51.75
2023-01-03T00:59:03.918Z,51.55
2023-01-03T01:01:53.464Z,51.32
2023-01-03T01:04:21.555Z,51.16
2023-01-03T01:07:01.218Z,50.82
2023-01-03T01:09:32.542Z,51.16
2023-01-03T01:12:00.628Z,51.38
2023-01-03T01:14:30.159Z,51.14
2023-01-03T01:17:01.581Z,51.43
2023-01-03T01:19:35.368Z,51.05
2023-01-03T01:22:03.336Z,50.72
2023-01-03T01:24:31.590Z,50.87
2023-01-03T01:27:00.461Z,50.90
2023-01-03T01:29:28.493Z,50.23
2023-01-03T01:31:56.301Z,50.83
2023-01-03T01:34:24.152Z,51.14
2023-01-03T01:36:51.959Z,50.51
2023-01-03T01:39:25.718Z,50.62
2023-01-03T01:42:24.016Z,50.48
2023-01-03T01:45:01.484Z,50.70
2023-01-03T01:47:51.484Z,50.59
2023-01-03T01:50:25.538Z,50.46
2023-01-03T01:53:05.555Z,50.51
2023-01-03T01:55:52.011Z,50.30
2023-01-03T01:58:22.837Z,49.89
2023-01-03T02:00:50.644Z,49.83
2023-01-03T02:03:18.415Z,49.96
2023-01-03T02:05:51.637Z,49.72
2023-01-03T02:08:19.965Z,49.61
2023-01-03T02:11:15.465Z,49.32
2023-01-03T02:13:52.740Z,48.95
2023-01-03T02:16:23.380Z,49.58
2023-01-03T02:19:09.377Z,49.68
2023-01-03T02:22:03.343Z,49.96
2023-01-03T02:24:53.364Z,48.92
2023-01-03T02:27:36.306Z,48.95
2023-01-03T02:30:47.611Z,49.22
2023-01-03T02:33:21.410Z,48.97
2023-01-03T02:36:00.673Z,48.81
2023-01-03T02:38:53.236Z,49.03
2023-01-03T02:41:32.368Z,48.67
2023-01-03T02:44:24.711Z,49.17
2023-01-03T02:46:59.253Z,48.71
2023-01-03T02:49:42.635Z,48.78
2023-01-03T02:52:18.379Z,48.78
2023-01-03T02:55:10.284Z,49.23
2023-01-03T02:57:43.936Z,48.76
2023-01-03T03:00:15.666Z,48.50
2023-01-03T03:02:52.296Z,48.12
2023-01-03T03:05:28.289Z,48.45
2023-01-03T03:07:56.107Z,48.38
2023-01-03T03:10:43.257Z,47.94
2023-01-03T03:13:21.545Z,47.87
2023-01-03T03:15:58.336Z,47.70
2023-01-03T03:18:56.759Z,48.20
2023-01-03T03:21:44.477Z,47.93
2023-01-03T03:24:39.612Z,47.54
2023-01-03T03:27:30.327Z,47.54
2023-01-03T03:30:00.976Z,47.72
2023-01-03T03:32:32.280Z,47.23
2023-01-03T03:35:04.241Z,47.26
2023-01-03T03:37:35.985Z,47.04
2023-01-03T03:40:31.399Z,47.62
2023-01-03T03:43:34.663Z,47.46
2023-01-03T03:46:12.859Z,47.39
2023-01-03T03:49:15.474Z,47.51
2023-01-03T03:51:47.308Z,47.22
2023-01-03T03:54:19.519Z,47.30
2023-01-03T03:56:55.308Z,47.62
2023-01-03T03:59:25.116Z,47.55
2023-01-03T04:01:55.485Z,48.01
2023-01-03T04:04:28.683Z,48.06
2023-01-03T04:06:56.437Z,48.32
2023-01-03T04:09:24.153Z,48.17
2023-01-03T04:11:52.046Z,48.54
2023-01-03T04:14:21.012Z,48.72
2023-01-03T04:16:48.982Z,48.25
2023-01-03T04:19:16.916Z,48.32
2023-01-03T04:21:44.839Z,48.48
2023-01-03T04:24:12.672Z,48.97
2023-01-03T04:26:40.312Z,48.80
2023-01-03T04:29:07.970Z,49.12
2023-01-03T04:31:35.687Z,49.00
2023-01-03T04:34:03.409Z,48.77
2023-01-03T04:36:31.289Z,48.42
2023-01-03T04:39:00.753Z,48.25
2023-01-03T04:41:28.527Z,48.23
2023-01-03T04:44:02.279Z,48.52
2023-01-03T04:46:37.036Z,48.55
2023-01-03T04:49:06.601Z,49.33
2023-01-03T04:51:35.341Z,49.21
2023-01-03T04:54:04.556Z,49.16
2023-01-03T04:56:35.710Z,49.12
2023-01-03T04:59:04.874Z,49.26
2023-01-03T05:01:32.761Z,49.08
2023-01-03T05:04:02.118Z,48.60
2023-01-03T05:06:30.256Z,48.98
2023-01-03T05:08:58.124Z,48.61
2023-01-03T05:11:25.966Z,48.75
2023-01-03T05:13:53.668Z,48.78
2023-01-03T05:16:21.548Z,48.47
2023-01-03T05:18:51.457Z,48.63
2023-01-03T05:21:44.374Z,48.55
2023-01-03T05:24:31.412Z,48.67
2023-01-03T05:27:01.728Z,48.33
2023-01-03T05:29:30.212Z,48.11
2023-01-03T05:31:58.080Z,47.93
2023-01-03T05:34:26.246Z,48.11
2023-01-03T05:36:54.051Z,48.52
2023-01-03T05:39:21.721Z,48.58
2023-01-03T05:42:01.369Z,48.46
2023-01-03T05:44:32.030Z,49.01
2023-01-03T05:47:01.409Z,48.91
2023-01-03T05:49:29.639Z,48.93
2023-01-03T05:51:57.697Z,48.90
2023-01-03T05:54:27.074Z,48.98
2023-01-03T05:56:55.061Z,48.92
2023-01-03T05:59:22.967Z,49.20
2023-01-03T06:01:51.155Z,49.45
2023-01-03T06:04:19.290Z,49.55
2023-01-03T06:06:48.373Z,49.64
2023-01-03T06:09:16.825Z,49.74
2023-01-03T06:11:44.654Z,50.33
2023-01-03T06:14:12.471Z,49.74
2023-01-03T06:16:58.917Z,49.98
2023-01-03T06:19:27.005Z,49.36
2023-01-03T06:21:54.761Z,49.47
2023-01-03T06:24:22.719Z,49.00
2023-01-03T06:26:50.499Z,49.42
2023-01-03T06:29:18.324Z,49.28
2023-01-03T06:31:46.147Z,49.35
2023-01-03T06:34:18.062Z,48.74
2023-01-03T06:36:45.801Z,49.11
2023-01-03T06:39:13.812Z,48.96
2023-01-03T06:41:41.712Z,49.10
2023-01-03T06:44:11.491Z,48.53
2023-01-03T06:46:57.692Z,48.34
2023-01-03T06:49:44.126Z,48.23
2023-01-03T06:52:34.594Z,48.01
2023-01-03T06:55:02.920Z,47.77
2023-01-03T06:57:30.639Z,47.90
2023-01-03T06:59:58.414Z,47.35
2023-01-03T07:02:26.460Z,47.58
2023-01-03T07:04:54.357Z,47.65
2023-01-03T07:07:22.343Z,47.40
2023-01-03T07:09:50.045Z,47.20
2023-01-03T07:12:38.729Z,47.43
2023-01-03T07:15:06.940Z,47.21
2023-01-03T07:17:34.633Z,47.57
2023-01-03T07:20:02.672Z,47.36
2023-01-03T07:22:31.188Z,47.44
2023-01-03T07:24:58.994Z,47.51
2023-01-03T07:27:26.838Z,47.02
2023-01-03T07:29:54.604Z,46.97
2023-01-03T07:32:22.551Z,47.15
2023-01-03T07:34:51.545Z,47.32
2023-01-03T07:37:19.246Z,47.27
2023-01-03T07:39:47.007Z,47.26
2023-01-03T07:42:33.404Z,46.98
2023-01-03T07:45:01.123Z,46.79
2023-01-03T07:47:28.962Z,46.95
2023-01-03T07:49:56.726Z,46.93
2023-01-03T07:52:24.446Z,47.12
2023-01-03T07:54:52.111Z,47.15
2023-01-03T07:57:20.215Z,46.71
2023-01-03T07:59:47.963Z,46.67
2023-01-03T08:02:19.760Z,46.43
2023-01-03T08:04:48.140Z,46.79
2023-01-03T08:07:16.294Z,46.57
2023-01-03T08:10:02.357Z,46.66
2023-01-03T08:12:48.497Z,46.17
2023-01-03T08:15:16.654Z,46.26
2023-01-03T08:17:44.432Z,46.13
2023-01-03T08:20:12.110Z,46.12
2023-01-03T08:22:39.823Z,46.46
2023-01-03T08:25:07.952Z,46.61
2023-01-03T08:27:35.794Z,46.63
2023-01-03T08:30:04.135Z,46.56
2023-01-03T08:32:33.811Z,46.65
2023-01-03T08:35:01.804Z,46.60
2023-01-03T08:37:29.497Z,46.90
2023-01-03T08:40:01.667Z,46.50
2023-01-03T08:42:29.966Z,46.41
2023-01-03T08:45:02.954Z,46.38
2023-01-03T08:47:31.760Z,46.21
2023-01-03T08:50:01.901Z,46.32
2023-01-03T08:52:34.860Z,46.40
2023-01-03T08:55:03.911Z,46.44
2023-01-03T08:57:31.938Z,46.14
2023-01-03T08:59:59.826Z,46.63
2023-01-03T09:02:27.721Z,45.87
2023-01-03T09:04:55.654Z,46.21
2023-01-03T09:07:23.552Z,45.91
2023-01-03T09:09:51.179Z,46.15
2023-01-03T09:12:18.981Z,45.80
2023-01-03T09:14:46.772Z,45.41
2023-01-03T09:17:14.696Z,45.58
2023-01-03T09:19:42.499Z,45.81
2023-01-03T09:22:10.296Z,45.90
2023-01-03T09:24:38.026Z,45.97
2023-01-03T09:27:05.722Z,45.93
2023-01-03T09:29:33.552Z,46.25
2023-01-03T09:32:03.766Z,45.85
2023-01-03T09:34:31.707Z,46.17
2023-01-03T09:36:59.585Z,46.29
2023-01-03T09:39:27.361Z,46.62
2023-01-03T09:42:13.559Z,46.54
2023-01-03T09:44:41.531Z,46.43
2023-01-03T09:47:18.684Z,46.72
2023-01-03T09:50:18.437Z,47.45
2023-01-03T09:52:53.179Z,47.68
2023-01-03T09:55:55.436Z,48.72
2023-01-03T09:58:41.694Z,48.59
2023-01-03T10:01:46.917Z,48.65
2023-01-03T10:04:26.899Z,48.26
2023-01-03T10:07:14.587Z,48.23
2023-01-03T10:09:42.220Z,48.18
2023-01-03T10:12:35.341Z,48.20
2023-01-03T10:15:24.727Z,48.16
2023-01-03T10:18:08.540Z,47.99
2023-01-03T10:20:53.907Z,52.18
2023-01-03T10:23:21.978Z,55.65
2023-01-03T10:25:49.726Z,50.26
2023-01-03T10:28:28.376Z,53.38
2023-01-03T10:31:07.612Z,53.03
2023-01-03T10:33:47.732Z,48.57
2023-01-03T10:36:20.939Z,48.12
2023-01-03T10:39:02.059Z,48.78
2023-01-03T10:41:51.849Z,49.62
2023-01-03T10:44:29.290Z,48.45
2023-01-03T10:47:00.491Z,48.12
2023-01-03T10:49:31.799Z,47.98
2023-01-03T10:52:16.886Z,48.09
2023-01-03T10:54:48.135Z,48.48
2023-01-03T10:57:44.426Z,48.87
2023-01-03T11:00:33.966Z,47.89
2023-01-03T11:03:22.676Z,47.32
2023-01-03T11:05:56.787Z,47.45
2023-01-03T11:08:40.721Z,47.35
2023-01-03T11:11:31.843Z,54.58
2023-01-03T11:14:28.186Z,50.75
2023-01-03T11:17:03.030Z,50.14
2023-01-03T11:19:33.395Z,49.04
2023-01-03T11:22:06.841Z,48.33
2023-01-03T11:24:46.708Z,47.79
2023-01-03T11:27:17.290Z,48.83
2023-01-03T11:30:06.622Z,47.72
2023-01-03T11:32:45.210Z,53.95
2023-01-03T11:35:31.541Z,50.20
2023-01-03T11:38:08.446Z,48.53
2023-01-03T11:40:57.526Z,47.03
2023-01-03T11:43:38.778Z,47.05
2023-01-03T11:46:34.402Z,46.47
2023-01-03T11:49:13.332Z,48.26
2023-01-03T11:52:22.867Z,48.58
2023-01-03T11:55:13.445Z,47.97
2023-01-03T11:58:07.645Z,48.39
2023-01-03T12:00:49.330Z,48.22
2023-01-03T12:03:29.394Z,48.09
2023-01-03T12:06:26.735Z,48.14
2023-01-03T12:08:56.592Z,48.18
2023-01-03T12:11:30.250Z,47.87
2023-01-03T12:14:27.313Z,47.60
2023-01-03T12:17:03.650Z,48.00
2023-01-03T12:19:43.762Z,48.42
2023-01-03T12:22:23.972Z,47.80
2023-01-03T12:25:07.793Z,48.62
2023-01-03T12:27:42.351Z,47.83
2023-01-03T12:30:31.963Z,48.09
2023-01-03T12:33:16.388Z,46.36
2023-01-03T12:35:49.940Z,46.31
2023-01-03T12:38:25.020Z,47.37
2023-01-03T12:41:25.972Z,47.01
2023-01-03T12:44:18.167Z,46.84
2023-01-03T12:46:50.896Z,47.30
2023-01-03T12:49:35.153Z,46.89
2023-01-03T12:52:02.835Z,47.28
2023-01-03T12:54:52.687Z,46.76
2023-01-03T12:57:39.109Z,47.23
2023-01-03T13:00:25.931Z,48.34
2023-01-03T13:03:26.350Z,47.23
2023-01-03T13:06:20.664Z,46.85
2023-01-03T13:09:01.715Z,47.06
2023-01-03T13:11:36.232Z,47.56
2023-01-03T13:14:16.130Z,47.96
2023-01-03T13:16:49.268Z,47.66
2023-01-03T13:19:20.320Z,47.61
2023-01-03T13:22:03.655Z,48.43
2023-01-03T13:24:52.500Z,47.44
2023-01-03T13:27:20.809Z,48.31
2023-01-03T13:29:51.610Z,49.11
2023-01-03T13:32:22.476Z,48.25
2023-01-03T13:34:59.807Z,48.00
2023-01-03T13:37:48.196Z,47.79
2023-01-03T13:40:22.214Z,49.04
2023-01-03T13:43:02.664Z,49.98
2023-01-03T13:45:30.467Z,49.73
2023-01-03T13:48:08.798Z,50.38
2023-01-03T13:50:38.227Z,49.73
2023-01-03T13:53:12.200Z,50.30
2023-01-03T13:55:59.719Z,51.50
2023-01-03T13:58:48.846Z,50.71
2023-01-03T14:01:42.265Z,50.37
2023-01-03T14:04:28.993Z,50.04
2023-01-03T14:07:06.001Z,49.36
2023-01-03T14:09:33.960Z,49.71
2023-01-03T14:12:26.870Z,49.91
2023-01-03T14:14:57.910Z,49.37
2023-01-03T14:17:36.606Z,50.08
2023-01-03T14:20:10.124Z,49.43
2023-01-03T14:22:48.603Z,49.46
2023-01-03T14:25:37.998Z,49.26
2023-01-03T14:28:33.073Z,49.67
2023-01-03T14:31:09.246Z,50.48
2023-01-03T14:33:44.148Z,50.73
2023-01-03T14:36:17.704Z,51.46
2023-01-03T14:38:51.220Z,51.18
2023-01-03T14:41:35.533Z,50.78
2023-01-03T14:44:14.683Z,50.60
2023-01-03T14:46:53.584Z,49.46
2023-01-03T14:49:41.761Z,49.53
2023-01-03T14:52:37.392Z,49.54
2023-01-03T14:55:17.598Z,49.36
2023-01-03T14:57:49.858Z,48.63
2023-01-03T15:00:32.910Z,48.94
2023-01-03T15:03:03.788Z,47.82
2023-01-03T15:05:38.669Z,47.60
2023-01-03T15:08:16.135Z,46.72
2023-01-03T15:10:55.830Z,46.13
2023-01-03T15:13:30.091Z,46.42
2023-01-03T15:16:00.759Z,46.41
2023-01-03T15:18:32.360Z,46.62
2023-01-03T15:21:02.147Z,46.85
2023-01-03T15:23:37.716Z,46.63
2023-01-03T15:26:07.331Z,45.99
2023-01-03T15:28:51.003Z,45.74
2023-01-03T15:31:30.966Z,46.04
2023-01-03T15:34:02.060Z,45.82
2023-01-03T15:36:32.565Z,45.10
2023-01-03T15:39:00.519Z,46.14
2023-01-03T15:42:00.148Z,46.05
2023-01-03T15:44:39.679Z,46.42
2023-01-03T15:47:08.830Z,46.15
2023-01-03T15:49:42.369Z,46.25
2023-01-03T15:52:14.710Z,46.95
2023-01-03T15:54:44.966Z,46.70
2023-01-03T15:57:21.221Z,46.33
2023-01-03T16:00:02.164Z,46.31
2023-01-03T16:02:32.867Z,46.51
2023-01-03T16:05:02.087Z,46.46
2023-01-03T16:07:29.979Z,46.41
2023-01-03T16:09:57.667Z,46.46
2023-01-03T16:12:36.589Z,46.53
2023-01-03T16:15:08.868Z,47.44
2023-01-03T16:17:42.978Z,47.31
2023-01-03T16:20:18.127Z,47.54
2023-01-03T16:23:00.375Z,47.52
2023-01-03T16:25:28.892Z,47.83
2023-01-03T16:27:56.772Z,47.66
2023-01-03T16:30:24.711Z,48.13
2023-01-03T16:32:52.576Z,47.48
2023-01-03T16:35:21.003Z,47.59
2023-01-03T16:37:48.733Z,47.17
2023-01-03T16:40:19.340Z,47.01
2023-01-03T16:42:48.264Z,47.61
2023-01-03T16:45:17.578Z,47.95
2023-01-03T16:47:53.459Z,48.11
2023-01-03T16:50:21.335Z,48.10
2023-01-03T16:52:53.642Z,48.31
2023-01-03T16:55:32.473Z,48.47
2023-01-03T16:58:00.637Z,48.13
2023-01-03T17:00:34.831Z,48.63
2023-01-03T17:03:03.053Z,48.36
2023-01-03T17:05:37.559Z,48.50
2023-01-03T17:08:20.635Z,48.50
2023-01-03T17:10:51.865Z,48.51
2023-01-03T17:13:30.188Z,48.75
2023-01-03T17:15:59.203Z,48.35
2023-01-03T17:18:30.532Z,48.46
2023-01-03T17:21:01.917Z,48.48
2023-01-03T17:23:32.601Z,48.94
2023-01-03T17:26:01.732Z,48.93
2023-01-03T17:28:30.198Z,48.50
2023-01-03T17:30:57.946Z,48.58
2023-01-03T17:33:31.939Z,48.03
2023-01-03T17:36:01.737Z,47.90
2023-01-03T17:38:32.150Z,47.68
2023-01-03T17:40:59.931Z,47.23
2023-01-03T17:43:28.496Z,47.27
2023-01-03T17:46:22.889Z,46.70
2023-01-03T17:49:11.523Z,46.52
2023-01-03T17:51:40.392Z,46.56
2023-01-03T17:54:09.953Z,45.72
2023-01-03T17:56:38.058Z,45.63
2023-01-03T17:59:05.909Z,45.64
2023-01-03T18:01:34.384Z,45.83
2023-01-03T18:04:02.382Z,45.38
2023-01-03T18:06:30.384Z,45.74
2023-01-03T18:08:59.807Z,45.20
2023-01-03T18:11:27.661Z,45.16
2023-01-03T18:13:55.602Z,45.65
2023-01-03T18:16:23.921Z,45.95
2023-01-03T18:18:53.036Z,45.87
2023-01-03T18:21:30.246Z,45.20
2023-01-03T18:24:01.465Z,44.92
2023-01-03T18:26:35.624Z,45.51
2023-01-03T18:29:04.873Z,45.07
2023-01-03T18:31:33.155Z,44.91
2023-01-03T18:34:04.827Z,44.83
2023-01-03T18:36:44.092Z,44.82
2023-01-03T18:39:19.947Z,45.02
2023-01-03T18:41:47.802Z,44.84
2023-01-03T18:44:24.136Z,44.95
2023-01-03T18:46:52.705Z,44.91
2023-01-03T18:49:20.546Z,44.66
2023-01-03T18:51:53.092Z,44.60
2023-01-03T18:54:21.081Z,44.37
2023-01-03T18:56:48.916Z,44.35
2023-01-03T18:59:21.691Z,45.59
2023-01-03T19:01:49.612Z,45.81
2023-01-03T19:04:17.672Z,44.93
2023-01-03T19:06:49.660Z,44.74
2023-01-03T19:09:25.581Z,44.11
2023-01-03T19:11:54.753Z,44.58
2023-01-03T19:14:23.996Z,43.98
2023-01-03T19:16:52.101Z,44.88
2023-01-03T19:19:22.205Z,44.15
2023-01-03T19:21:50.599Z,44.44
2023-01-03T19:24:38.426Z,44.14
2023-01-03T19:27:21.411Z,44.19
2023-01-03T19:29:53.953Z,44.25
2023-01-03T19:32:28.207Z,44.48
2023-01-03T19:34:56.349Z,44.29
2023-01-03T19:37:23.975Z,44.20
2023-01-03T19:39:51.693Z,43.96
2023-01-03T19:42:40.175Z,43.71
2023-01-03T19:45:17.701Z,44.27
2023-01-03T19:47:45.492Z,44.16
2023-01-03T19:50:25.335Z,44.17
2023-01-03T19:52:53.874Z,44.20
2023-01-03T19:55:33.496Z,43.86
2023-01-03T19:58:05.992Z,45.17
2023-01-03T20:00:33.868Z,44.49
2023-01-03T20:03:05.496Z,45.27
2023-01-03T20:05:35.684Z,44.94
2023-01-03T20:08:12.257Z,44.70
2023-01-03T20:10:43.272Z,44.69
2023-01-03T20:13:19.316Z,44.76
2023-01-03T20:15:48.928Z,44.26
2023-01-03T20:18:41.582Z,44.25
2023-01-03T20:21:22.585Z,43.93
2023-01-03T20:23:54.602Z,43.95
2023-01-03T20:26:25.663Z,44.17
2023-01-03T20:28:55.304Z,44.59
2023-01-03T20:31:23.728Z,44.79
2023-01-03T20:33:52.491Z,44.32
2023-01-03T20:36:26.000Z,44.26
2023-01-03T20:38:56.236Z,44.23
2023-01-03T20:41:36.568Z,43.74
2023-01-03T20:44:08.212Z,44.09
2023-01-03T20:46:36.369Z,44.23
2023-01-03T20:49:06.941Z,43.84
2023-01-03T20:51:35.176Z,43.69
2023-01-03T20:54:05.476Z,44.08
2023-01-03T20:56:33.523Z,44.03
2023-01-03T20:59:01.602Z,45.50
2023-01-03T21:01:29.621Z,44.06
2023-01-03T21:03:58.058Z,44.67
2023-01-03T21:06:29.664Z,44.39
2023-01-03T21:08:59.334Z,44.48
2023-01-03T21:11:32.531Z,43.56
2023-01-03T21:14:01.570Z,43.46
2023-01-03T21:16:44.282Z,43.66
2023-01-03T21:19:23.162Z,43.80
2023-01-03T21:21:53.850Z,43.43
2023-01-03T21:24:25.421Z,43.61
2023-01-03T21:26:53.219Z,44.53
2023-01-03T21:29:22.199Z,44.27
2023-01-03T21:31:50.095Z,43.73
2023-01-03T21:34:20.625Z,43.43
2023-01-03T21:36:48.980Z,43.30
2023-01-03T21:39:17.007Z,43.81
2023-01-03T21:42:03.787Z,45.25
2023-01-03T21:44:31.516Z,45.36
2023-01-03T21:46:59.394Z,44.71
2023-01-03T21:49:27.587Z,44.58
2023-01-03T21:51:55.592Z,44.20
2023-01-03T21:54:23.463Z,43.85
2023-01-03T21:56:51.386Z,43.56
2023-01-03T21:59:19.377Z,43.53
2023-01-03T22:02:06.643Z,43.06
2023-01-03T22:04:34.925Z,43.50
2023-01-03T22:07:02.753Z,43.32
2023-01-03T22:09:52.261Z,43.55
2023-01-03T22:12:22.483Z,43.68
2023-01-03T22:14:50.286Z,43.75
2023-01-03T22:17:18.136Z,43.92
2023-01-03T22:19:45.881Z,44.16
2023-01-03T22:22:13.938Z,45.27
2023-01-03T22:24:41.950Z,44.85
2023-01-03T22:27:09.740Z,43.85
2023-01-03T22:29:37.536Z,43.68
2023-01-03T22:32:05.760Z,43.27
2023-01-03T22:34:34.320Z,43.35
2023-01-03T22:37:02.194Z,43.22
2023-01-03T22:39:29.967Z,43.27
2023-01-03T22:41:57.667Z,43.16
2023-01-03T22:44:25.509Z,43.40
2023-01-03T22:46:53.278Z,43.01
2023-01-03T22:49:21.280Z,42.88
2023-01-03T22:51:48.966Z,42.80
2023-01-03T22:54:16.774Z,43.04
2023-01-03T22:56:44.752Z,43.19
2023-01-03T22:59:12.862Z,43.08
2023-01-03T23:01:44.220Z,43.06
2023-01-03T23:04:12.648Z,43.25
2023-01-03T23:06:47.486Z,42.94
2023-01-03T23:09:15.716Z,43.38
2023-01-03T23:12:01.968Z,43.11
2023-01-03T23:14:30.917Z,42.74
2023-01-03T23:17:18.927Z,43.04
2023-01-03T23:19:46.845Z,42.85
2023-01-03T23:22:14.872Z,43.28
2023-01-03T23:24:42.615Z,43.37
2023-01-03T23:27:10.475Z,43.08
2023-01-03T23:29:38.398Z,43.32
2023-01-03T23:32:06.460Z,43.04
2023-01-03T23:34:34.418Z,43.12
2023-01-03T23:37:02.248Z,43.35
2023-01-03T23:39:29.912Z,43.47
2023-01-03T23:41:57.728Z,43.62
2023-01-03T23:44:26.874Z,43.59
2023-01-03T23:46:54.662Z,43.67
2023-01-03T23:49:22.472Z,43.53
2023-01-03T23:51:50.247Z,43.59
2023-01-03T23:54:18.238Z,43.65
2023-01-03T23:56:46.124Z,43.67
2023-01-03T23:59:14.065Z,43.73
